createdAt,value
2019-05-20T00:00:09.588Z,3.80
2019-05-20T00:02:38.001Z,2.77
2019-05-20T00:05:06.628Z,3.20
2019-05-20T00:07:35.088Z,2.83
2019-05-20T00:10:07.105Z,3.08
2019-05-20T00:12:35.506Z,3.27
2019-05-20T00:15:06.920Z,2.90
2019-05-20T00:17:35.337Z,3.77
2019-05-20T00:20:06.057Z,3.08
2019-05-20T00:22:34.476Z,3.12
2019-05-20T00:25:03.526Z,2.90
2019-05-20T00:27:31.923Z,3.37
2019-05-20T00:30:00.304Z,3.47
2019-05-20T00:32:40.676Z,3.62
2019-05-20T00:34:58.816Z,3.55
2019-05-20T00:37:27.208Z,3.65
2019-05-20T00:39:55.588Z,3.25
2019-05-20T00:42:23.998Z,3.33
2019-05-20T00:44:52.392Z,3.20
2019-05-20T00:47:20.785Z,2.75
2019-05-20T00:49:49.168Z,3.47
2019-05-20T00:52:17.561Z,2.90
2019-05-20T00:54:45.972Z,3.05
2019-05-20T00:57:14.362Z,3.75
2019-05-20T00:59:42.796Z,3.02
2019-05-20T01:02:11.337Z,3.25
2019-05-20T01:04:39.760Z,2.95
2019-05-20T01:07:08.163Z,2.62
2019-05-20T01:09:36.561Z,4.00
2019-05-20T01:12:05.020Z,3.22
2019-05-20T01:14:33.416Z,2.95
2019-05-20T01:17:02.044Z,4.08
2019-05-20T01:19:30.549Z,3.17
2019-05-20T01:21:58.968Z,3.95
2019-05-20T01:24:27.359Z,3.70
2019-05-20T01:26:55.746Z,3.52
2019-05-20T01:29:24.141Z,3.47
2019-05-20T01:31:52.520Z,3.12
2019-05-20T01:34:20.926Z,4.05
2019-05-20T01:36:49.322Z,4.03
2019-05-20T01:39:17.780Z,3.60
2019-05-20T01:41:46.181Z,4.20
2019-05-20T01:44:14.584Z,3.77
2019-05-20T01:46:42.976Z,3.20
2019-05-20T01:49:11.364Z,4.17
2019-05-20T01:51:39.748Z,4.47
2019-05-20T01:54:08.161Z,4.90
2019-05-20T01:56:36.566Z,4.17
2019-05-20T01:59:05.031Z,3.87
2019-05-20T02:01:33.448Z,3.70
2019-05-20T02:04:01.811Z,5.00
2019-05-20T02:06:30.224Z,4.80
2019-05-20T02:08:58.690Z,4.53
2019-05-20T02:11:27.097Z,4.28
2019-05-20T02:13:57.122Z,4.15
2019-05-20T02:16:27.449Z,5.45
2019-05-20T02:18:55.824Z,5.37
2019-05-20T02:21:24.234Z,4.17
2019-05-20T02:23:52.616Z,3.52
2019-05-20T02:26:21.037Z,5.37
2019-05-20T02:28:49.416Z,5.97
2019-05-20T02:31:17.820Z,4.67
2019-05-20T02:33:51.945Z,3.65
2019-05-20T02:36:16.328Z,6.20
2019-05-20T02:38:44.714Z,5.33
2019-05-20T02:41:13.125Z,4.92
2019-05-20T02:43:41.574Z,5.92
2019-05-20T02:46:10.033Z,6.75
2019-05-20T02:48:38.420Z,5.10
2019-05-20T02:51:06.843Z,6.22
2019-05-20T02:53:35.234Z,5.20
2019-05-20T02:56:03.638Z,4.90
2019-05-20T02:58:32.011Z,5.53
2019-05-20T03:01:00.414Z,4.17
2019-05-20T03:03:29.067Z,6.25
2019-05-20T03:05:57.471Z,6.22
2019-05-20T03:08:25.850Z,5.92
2019-05-20T03:10:54.250Z,6.62
2019-05-20T03:13:22.654Z,6.22
2019-05-20T03:15:51.061Z,6.25
2019-05-20T03:18:19.451Z,6.28
2019-05-20T03:20:47.846Z,6.10
2019-05-20T03:23:16.233Z,6.53
2019-05-20T03:25:44.698Z,5.85
2019-05-20T03:28:13.100Z,4.80
2019-05-20T03:30:41.649Z,6.75
2019-05-20T03:33:10.042Z,6.28
2019-05-20T03:35:38.428Z,5.12
2019-05-20T03:38:06.824Z,6.40
2019-05-20T03:40:35.206Z,5.92
2019-05-20T03:43:03.620Z,4.78
2019-05-20T03:45:32.013Z,5.33
2019-05-20T03:48:00.417Z,4.08
2019-05-20T03:50:28.793Z,4.75
2019-05-20T03:52:57.194Z,5.12
2019-05-20T03:55:25.582Z,5.55
2019-05-20T03:57:53.990Z,6.17
2019-05-20T04:00:37.363Z,5.70
2019-05-20T04:03:05.760Z,6.10
2019-05-20T04:05:34.147Z,5.42
2019-05-20T04:08:02.541Z,4.92
2019-05-20T04:10:30.935Z,6.30
2019-05-20T04:12:59.345Z,5.10
2019-05-20T04:15:27.730Z,5.95
2019-05-20T04:17:56.210Z,6.30
2019-05-20T04:20:24.585Z,5.45
2019-05-20T04:22:52.980Z,5.97
2019-05-20T04:25:21.364Z,6.30
2019-05-20T04:27:49.758Z,6.12
2019-05-20T04:30:19.187Z,5.53
2019-05-20T04:32:47.809Z,4.97
2019-05-20T04:35:22.307Z,5.50
2019-05-20T04:37:46.395Z,5.78
2019-05-20T04:40:14.801Z,5.65
2019-05-20T04:42:43.191Z,5.47
2019-05-20T04:45:13.321Z,5.25
2019-05-20T04:47:41.715Z,5.65
2019-05-20T04:50:10.345Z,4.70
2019-05-20T04:52:38.748Z,5.53
2019-05-20T04:55:07.781Z,5.70
2019-05-20T04:57:36.179Z,6.80
2019-05-20T05:00:07.783Z,5.60
2019-05-20T05:02:36.184Z,4.60
2019-05-20T05:05:06.522Z,6.12
2019-05-20T05:07:34.912Z,5.05
2019-05-20T05:10:04.561Z,4.53
2019-05-20T05:12:32.949Z,4.97
2019-05-20T05:15:01.433Z,5.97
2019-05-20T05:17:29.810Z,6.08
2019-05-20T05:19:58.260Z,3.95
2019-05-20T05:22:26.929Z,5.87
2019-05-20T05:24:55.341Z,4.22
2019-05-20T05:27:23.722Z,5.72
2019-05-20T05:29:52.162Z,6.12
2019-05-20T05:32:22.264Z,5.95
2019-05-20T05:34:50.673Z,6.65
2019-05-20T05:37:19.077Z,7.17
2019-05-20T05:39:47.469Z,6.45
2019-05-20T05:42:15.874Z,5.95
2019-05-20T05:44:44.299Z,7.33
2019-05-20T05:47:12.690Z,7.03
2019-05-20T05:49:41.085Z,6.20
2019-05-20T05:52:09.476Z,7.33
2019-05-20T05:54:37.878Z,7.15
2019-05-20T05:57:06.252Z,6.00
2019-05-20T05:59:34.662Z,6.60
2019-05-20T06:02:03.076Z,8.55
2019-05-20T06:04:31.461Z,8.18
2019-05-20T06:06:59.848Z,7.58
2019-05-20T06:09:28.257Z,7.55
2019-05-20T06:11:56.662Z,8.25
2019-05-20T06:14:25.060Z,9.43
2019-05-20T06:16:53.456Z,9.85
2019-05-20T06:19:21.919Z,8.08
2019-05-20T06:21:50.314Z,8.70
2019-05-20T06:24:18.715Z,9.13
2019-05-20T06:26:47.099Z,12.78
2019-05-20T06:29:15.515Z,16.55
2019-05-20T06:31:43.928Z,19.65
2019-05-20T06:34:12.313Z,21.42
2019-05-20T06:36:42.392Z,23.67
2019-05-20T06:39:11.668Z,20.82
2019-05-20T06:41:40.329Z,14.68
2019-05-20T06:44:08.789Z,10.35
2019-05-20T06:46:37.190Z,11.90
2019-05-20T06:49:05.578Z,11.95
2019-05-20T06:51:33.977Z,11.33
2019-05-20T06:54:02.446Z,11.03
2019-05-20T06:56:30.851Z,10.20
2019-05-20T06:58:59.271Z,11.95
2019-05-20T07:01:27.666Z,12.37
2019-05-20T07:03:56.057Z,12.47
2019-05-20T07:06:24.479Z,12.63
2019-05-20T07:08:52.916Z,13.75
2019-05-20T07:11:21.397Z,10.88
2019-05-20T07:13:49.786Z,9.45
2019-05-20T07:16:18.182Z,10.40
2019-05-20T07:18:46.573Z,11.55
2019-05-20T07:21:14.984Z,13.25
2019-05-20T07:23:43.464Z,11.33
2019-05-20T07:26:11.945Z,11.97
2019-05-20T07:28:40.361Z,11.35
2019-05-20T07:31:08.834Z,13.22
2019-05-20T07:33:37.216Z,11.68
2019-05-20T07:36:09.366Z,13.68
2019-05-20T07:38:35.899Z,10.50
2019-05-20T07:41:04.443Z,15.18
2019-05-20T07:43:32.842Z,15.85
2019-05-20T07:46:02.480Z,15.90
2019-05-20T07:48:32.202Z,16.13
2019-05-20T07:51:02.587Z,16.57
2019-05-20T07:53:31.668Z,15.83
2019-05-20T07:56:08.493Z,17.65
2019-05-20T07:58:39.144Z,17.80
2019-05-20T08:01:07.722Z,16.95
2019-05-20T08:03:38.570Z,15.93
2019-05-20T08:06:06.436Z,20.80
2019-05-20T08:08:34.950Z,20.65
2019-05-20T08:11:03.617Z,21.00
2019-05-20T08:13:32.012Z,22.27
2019-05-20T08:16:00.427Z,18.23
2019-05-20T08:18:28.833Z,18.50
2019-05-20T08:20:57.293Z,19.05
2019-05-20T08:23:25.702Z,18.52
2019-05-20T08:25:54.125Z,20.25
2019-05-20T08:28:22.536Z,20.17
2019-05-20T08:30:50.941Z,20.00
2019-05-20T08:33:19.358Z,20.02
2019-05-20T08:35:47.750Z,18.55
2019-05-20T08:38:16.237Z,19.87
2019-05-20T08:40:48.272Z,20.80
2019-05-20T08:43:14.755Z,21.82
2019-05-20T08:45:43.265Z,22.75
2019-05-20T08:48:11.686Z,21.93
2019-05-20T08:50:40.098Z,22.70
2019-05-20T08:53:09.028Z,24.10
2019-05-20T08:55:37.430Z,22.13
2019-05-20T08:58:05.842Z,20.72
2019-05-20T09:00:34.217Z,21.27
2019-05-20T09:03:02.626Z,20.08
2019-05-20T09:05:31.024Z,20.88
2019-05-20T09:08:03.495Z,22.85
2019-05-20T09:10:29.560Z,21.02
2019-05-20T09:12:57.974Z,20.57
2019-05-20T09:15:26.428Z,19.23
2019-05-20T09:17:54.836Z,23.83
2019-05-20T09:20:24.083Z,22.48
2019-05-20T09:22:52.511Z,18.85
2019-05-20T09:25:24.031Z,22.10
2019-05-20T09:27:52.452Z,21.82
2019-05-20T09:30:20.921Z,20.43
2019-05-20T09:32:49.402Z,19.07
2019-05-20T09:35:17.865Z,22.35
2019-05-20T09:37:46.282Z,21.07
2019-05-20T09:40:17.749Z,21.65
2019-05-20T09:42:46.183Z,20.00
2019-05-20T09:45:14.731Z,22.87
2019-05-20T09:47:43.132Z,21.82
2019-05-20T09:50:11.530Z,21.40
2019-05-20T09:52:39.934Z,18.90
2019-05-20T09:55:08.576Z,23.50
2019-05-20T09:57:36.978Z,22.15
2019-05-20T10:00:07.395Z,21.00
2019-05-20T10:05:06.530Z,25.10
2019-05-20T10:07:34.938Z,23.77
2019-05-20T10:10:04.878Z,24.35
2019-05-20T10:12:45.548Z,23.10
2019-05-20T10:15:04.293Z,27.13
2019-05-20T10:17:32.712Z,25.10
2019-05-20T10:20:01.205Z,24.40
2019-05-20T10:22:29.586Z,22.55
2019-05-20T10:24:58.066Z,25.68
2019-05-20T10:27:26.484Z,26.75
2019-05-20T10:29:54.902Z,26.05
2019-05-20T10:32:23.363Z,22.10
2019-05-20T10:34:51.774Z,24.70
2019-05-20T10:37:20.249Z,24.27
2019-05-20T10:39:48.669Z,28.23
2019-05-20T10:42:17.162Z,24.55
2019-05-20T10:44:45.570Z,26.57
2019-05-20T10:47:14.013Z,23.98
2019-05-20T10:49:42.453Z,27.13
2019-05-20T10:52:10.862Z,24.23
2019-05-20T10:54:39.276Z,25.43
2019-05-20T10:57:07.668Z,24.82
2019-05-20T10:59:36.080Z,25.43
2019-05-20T11:02:04.553Z,22.17
2019-05-20T11:04:35.389Z,26.17
2019-05-20T11:07:03.146Z,24.32
2019-05-20T11:09:31.603Z,22.20
2019-05-20T11:11:59.990Z,23.27
2019-05-20T11:14:28.415Z,21.97
2019-05-20T11:16:56.842Z,21.75
2019-05-20T11:19:25.246Z,22.13
2019-05-20T11:21:53.665Z,21.68
2019-05-20T11:24:22.074Z,21.62
2019-05-20T11:26:50.495Z,21.25
2019-05-20T11:29:19.145Z,21.15
2019-05-20T11:31:47.817Z,19.05
2019-05-20T11:34:16.217Z,20.05
2019-05-20T11:36:44.650Z,24.72
2019-05-20T11:39:13.053Z,20.80
2019-05-20T11:41:52.887Z,20.92
2019-05-20T11:44:12.141Z,21.90
2019-05-20T11:46:40.714Z,20.52
2019-05-20T11:49:09.112Z,21.05
2019-05-20T11:51:37.521Z,21.80
2019-05-20T11:54:05.917Z,20.85
2019-05-20T11:56:34.324Z,21.52
2019-05-20T11:59:02.901Z,21.87
2019-05-20T12:01:31.339Z,23.50
2019-05-20T12:03:59.762Z,23.35
2019-05-20T12:06:28.264Z,24.20
2019-05-20T12:08:56.707Z,24.40
2019-05-20T12:11:25.137Z,24.02
2019-05-20T12:13:53.561Z,25.17
2019-05-20T12:16:21.966Z,23.92
2019-05-20T12:18:50.381Z,23.75
2019-05-20T12:21:18.785Z,22.27
2019-05-20T12:23:47.211Z,24.70
2019-05-20T12:26:15.691Z,24.80
2019-05-20T12:28:44.108Z,24.67
2019-05-20T12:31:12.556Z,24.32
2019-05-20T12:33:40.992Z,23.90
2019-05-20T12:36:09.400Z,21.42
2019-05-20T12:38:37.836Z,22.00
2019-05-20T12:41:06.238Z,22.95
2019-05-20T12:43:34.668Z,21.33
2019-05-20T12:46:03.542Z,21.17
2019-05-20T12:48:34.838Z,21.40
2019-05-20T12:51:03.272Z,21.07
2019-05-20T12:53:31.657Z,19.12
2019-05-20T12:56:00.064Z,18.55
2019-05-20T12:58:28.634Z,18.95
2019-05-20T13:00:59.521Z,20.12
2019-05-20T13:03:27.978Z,18.70
2019-05-20T13:05:58.515Z,18.80
2019-05-20T13:10:55.321Z,17.27
2019-05-20T13:13:23.749Z,17.75
2019-05-20T13:15:52.150Z,18.67
2019-05-20T13:18:20.565Z,16.97
2019-05-20T13:20:48.969Z,17.90
2019-05-20T13:23:17.366Z,19.17
2019-05-20T13:25:45.754Z,15.90
2019-05-20T13:28:15.216Z,16.23
2019-05-20T13:30:43.668Z,16.60
2019-05-20T13:33:12.099Z,16.37
2019-05-20T13:35:40.498Z,14.87
2019-05-20T13:38:08.896Z,13.20
2019-05-20T13:40:46.614Z,14.13
2019-05-20T13:43:07.453Z,13.40
2019-05-20T13:45:35.839Z,13.60
2019-05-20T13:48:04.261Z,12.28
2019-05-20T13:50:32.803Z,12.47
2019-05-20T13:53:01.217Z,11.57
2019-05-20T13:55:29.628Z,13.35
2019-05-20T13:57:58.053Z,13.22
2019-05-20T14:00:26.586Z,12.10
2019-05-20T14:02:55.081Z,12.15
2019-05-20T14:05:23.497Z,11.45
2019-05-20T14:07:51.931Z,11.88
2019-05-20T14:10:20.525Z,11.15
2019-05-20T14:12:48.945Z,11.55
2019-05-20T14:15:18.929Z,11.38
2019-05-20T14:17:47.457Z,12.40
2019-05-20T14:20:16.151Z,11.22
2019-05-20T14:22:44.555Z,9.08
2019-05-20T14:25:13.103Z,10.95
2019-05-20T14:27:41.521Z,11.83
2019-05-20T14:30:10.572Z,11.93
2019-05-20T14:32:38.950Z,11.28
2019-05-20T14:35:07.714Z,10.88
2019-05-20T14:37:36.200Z,10.63
2019-05-20T14:40:06.954Z,11.28
2019-05-20T14:42:35.360Z,12.40
2019-05-20T14:45:04.611Z,11.85
2019-05-20T14:47:33.061Z,12.50
2019-05-20T14:50:01.488Z,13.15
2019-05-20T14:52:29.885Z,12.13
2019-05-20T14:54:58.302Z,12.65
2019-05-20T14:57:26.699Z,12.58
2019-05-20T14:59:55.131Z,12.23
2019-05-20T15:02:23.540Z,12.00
2019-05-20T15:04:52.530Z,11.25
2019-05-20T15:07:30.324Z,12.58
2019-05-20T15:09:51.136Z,12.20
2019-05-20T15:12:19.608Z,14.03
2019-05-20T15:14:48.026Z,13.00
2019-05-20T15:17:16.537Z,12.40
2019-05-20T15:19:44.957Z,12.20
2019-05-20T15:22:13.576Z,11.63
2019-05-20T15:24:42.102Z,13.20
2019-05-20T15:27:10.516Z,12.75
2019-05-20T15:29:38.941Z,13.22
2019-05-20T15:32:07.338Z,14.20
2019-05-20T15:34:35.750Z,14.58
2019-05-20T15:37:04.196Z,14.95
2019-05-20T15:39:32.762Z,15.18
2019-05-20T15:42:01.273Z,15.35
2019-05-20T15:44:29.848Z,13.93
2019-05-20T15:46:58.266Z,14.68
2019-05-20T15:49:28.038Z,14.20
2019-05-20T15:51:56.470Z,16.65
2019-05-20T15:54:25.019Z,17.67
2019-05-20T15:56:55.109Z,20.10
2019-05-20T15:59:23.803Z,22.65
2019-05-20T16:01:52.211Z,23.77
2019-05-20T16:04:20.617Z,23.98
2019-05-20T16:06:49.016Z,24.65
2019-05-20T16:09:17.677Z,24.15
2019-05-20T16:11:46.306Z,23.15
2019-05-20T16:14:14.717Z,23.75
2019-05-20T16:16:43.136Z,25.80
2019-05-20T16:19:11.544Z,24.05
2019-05-20T16:21:39.959Z,25.12
2019-05-20T16:24:08.369Z,25.72
2019-05-20T16:26:36.794Z,21.48
2019-05-20T16:29:05.271Z,26.00
2019-05-20T16:31:33.754Z,26.33
2019-05-20T16:34:02.232Z,23.87
2019-05-20T16:36:30.855Z,27.90
2019-05-20T16:38:59.379Z,26.30
2019-05-20T16:41:27.798Z,28.67
2019-05-20T16:43:57.448Z,28.12
2019-05-20T16:46:29.700Z,28.20
2019-05-20T16:49:01.065Z,26.55
2019-05-20T16:51:30.385Z,27.00
2019-05-20T16:54:03.050Z,28.95
2019-05-20T16:56:32.636Z,30.32
2019-05-20T16:59:01.033Z,28.97
2019-05-20T17:01:44.239Z,27.32
2019-05-20T17:04:00.815Z,28.23
2019-05-20T17:06:30.271Z,28.23
2019-05-20T17:08:58.682Z,28.42
2019-05-20T17:11:31.013Z,28.80
2019-05-20T17:13:59.454Z,30.65
2019-05-20T17:16:27.915Z,27.27
2019-05-20T17:18:56.769Z,29.80
2019-05-20T17:21:25.190Z,30.20
2019-05-20T17:23:53.598Z,30.32
2019-05-20T17:26:22.007Z,29.98
2019-05-20T17:28:50.417Z,30.15
2019-05-20T17:31:18.884Z,32.15
2019-05-20T17:33:47.293Z,29.37
2019-05-20T17:36:15.768Z,28.73
2019-05-20T17:38:44.215Z,28.17
2019-05-20T17:41:12.673Z,29.98
2019-05-20T17:43:41.090Z,30.48
2019-05-20T17:46:09.580Z,29.30
2019-05-20T17:48:37.981Z,26.52
2019-05-20T17:51:06.698Z,28.60
2019-05-20T17:53:36.342Z,29.25
2019-05-20T17:56:09.909Z,30.80
2019-05-20T17:58:38.355Z,31.15
2019-05-20T18:01:15.312Z,32.60
2019-05-20T18:03:36.992Z,32.38
2019-05-20T18:09:37.240Z,30.12
2019-05-20T18:12:05.724Z,29.95
2019-05-20T18:14:34.128Z,28.95
2019-05-20T18:17:02.613Z,30.35
2019-05-20T18:19:31.037Z,29.63
2019-05-20T18:21:59.787Z,29.15
2019-05-20T18:24:28.180Z,29.12
2019-05-20T18:26:56.606Z,29.90
2019-05-20T18:29:25.003Z,28.05
2019-05-20T18:31:53.408Z,27.90
2019-05-20T18:34:21.873Z,23.80
2019-05-20T18:36:50.268Z,27.10
2019-05-20T18:39:18.715Z,28.02
2019-05-20T18:41:47.110Z,28.62
2019-05-20T18:44:15.562Z,26.57
2019-05-20T18:46:44.000Z,26.73
2019-05-20T18:49:12.442Z,30.02
2019-05-20T18:51:40.855Z,30.43
2019-05-20T18:54:10.187Z,31.23
2019-05-20T18:56:38.599Z,28.65
2019-05-20T18:59:08.192Z,29.48
2019-05-20T19:01:50.604Z,25.08
2019-05-20T19:04:07.235Z,27.90
2019-05-20T19:06:35.647Z,27.42
2019-05-20T19:09:05.602Z,26.93
2019-05-20T19:11:34.046Z,27.22
2019-05-20T19:14:02.510Z,28.95
2019-05-20T19:16:30.907Z,29.48
2019-05-20T19:18:59.329Z,26.87
2019-05-20T19:21:27.716Z,25.55
2019-05-20T19:23:56.132Z,29.92
2019-05-20T19:26:25.575Z,28.73
2019-05-20T19:28:54.177Z,30.13
2019-05-20T19:31:22.573Z,28.40
2019-05-20T19:33:50.982Z,29.85
2019-05-20T19:36:19.495Z,28.25
2019-05-20T19:38:47.919Z,32.38
2019-05-20T19:41:16.324Z,25.52
2019-05-20T19:43:44.775Z,29.52
2019-05-20T19:46:13.160Z,28.90
2019-05-20T19:48:41.573Z,30.15
2019-05-20T19:51:09.980Z,30.20
2019-05-20T19:53:39.443Z,32.93
2019-05-20T19:56:10.142Z,29.85
2019-05-20T19:58:41.709Z,28.55
2019-05-20T20:01:12.564Z,27.00
2019-05-20T20:03:42.827Z,28.90
2019-05-20T20:06:11.230Z,27.98
2019-05-20T20:08:43.084Z,27.20
2019-05-20T20:11:12.232Z,28.05
2019-05-20T20:13:40.621Z,28.40
2019-05-20T20:16:09.073Z,28.70
2019-05-20T20:18:37.688Z,30.23
2019-05-20T20:21:06.172Z,29.30
2019-05-20T20:23:36.976Z,27.70
2019-05-20T20:26:05.964Z,28.67
2019-05-20T20:28:34.412Z,30.50
2019-05-20T20:31:02.827Z,31.85
2019-05-20T20:33:31.237Z,31.05
2019-05-20T20:35:59.656Z,33.08
2019-05-20T20:38:28.068Z,34.30
2019-05-20T20:40:56.468Z,35.63
2019-05-20T20:43:24.903Z,34.85
2019-05-20T20:45:53.877Z,31.20
2019-05-20T20:48:22.269Z,32.33
2019-05-20T20:50:50.677Z,36.40
2019-05-20T20:53:19.060Z,37.05
2019-05-20T20:55:47.470Z,37.95
2019-05-20T20:58:15.888Z,30.43
2019-05-20T21:00:44.289Z,35.83
2019-05-20T21:03:12.678Z,33.63
2019-05-20T21:05:41.085Z,34.67
2019-05-20T21:08:09.506Z,36.50
2019-05-20T21:10:37.916Z,37.73
2019-05-20T21:13:06.323Z,35.88
2019-05-20T21:15:34.735Z,36.50
2019-05-20T21:18:03.161Z,38.88
2019-05-20T21:20:31.562Z,39.95
2019-05-20T21:22:59.974Z,35.25
2019-05-20T21:25:28.392Z,38.42
2019-05-20T21:27:56.816Z,38.98
2019-05-20T21:30:25.209Z,39.80
2019-05-20T21:33:08.260Z,40.30
2019-05-20T21:35:23.744Z,37.70
2019-05-20T21:37:52.162Z,38.88
2019-05-20T21:40:20.536Z,37.17
2019-05-20T21:42:48.996Z,38.63
2019-05-20T21:45:17.392Z,40.00
2019-05-20T21:47:45.836Z,37.90
2019-05-20T21:50:14.691Z,39.18
2019-05-20T21:52:43.106Z,39.90
2019-05-20T21:55:13.503Z,39.23
2019-05-20T21:57:41.926Z,35.65
2019-05-20T22:00:12.807Z,41.25
2019-05-20T22:02:41.272Z,38.35
2019-05-20T22:05:09.917Z,38.15
2019-05-20T22:07:38.374Z,36.85
2019-05-20T22:10:07.686Z,39.27
2019-05-20T22:12:36.099Z,39.13
2019-05-20T22:15:05.874Z,37.28
2019-05-20T22:17:34.368Z,40.67
2019-05-20T22:20:02.853Z,36.95
2019-05-20T22:22:32.936Z,41.08
2019-05-20T22:25:01.337Z,38.05
2019-05-20T22:27:29.769Z,36.25
2019-05-20T22:29:58.433Z,35.55
2019-05-20T22:32:26.908Z,37.65
2019-05-20T22:34:55.336Z,37.13
2019-05-20T22:37:23.744Z,36.53
2019-05-20T22:39:52.375Z,37.40
2019-05-20T22:42:20.803Z,36.93
2019-05-20T22:44:49.199Z,37.60
2019-05-20T22:47:17.621Z,34.65
2019-05-20T22:49:46.042Z,35.17
2019-05-20T22:52:14.443Z,38.05
2019-05-20T22:54:42.844Z,39.33
2019-05-20T22:57:11.320Z,33.80
2019-05-20T22:59:39.742Z,37.30
2019-05-20T23:02:08.153Z,33.28
2019-05-20T23:04:36.572Z,35.55
2019-05-20T23:07:05.234Z,33.65
2019-05-20T23:09:33.642Z,35.28
2019-05-20T23:12:02.073Z,34.27
2019-05-20T23:14:30.471Z,34.83
2019-05-20T23:16:58.968Z,32.80
2019-05-20T23:19:27.421Z,34.50
2019-05-20T23:21:55.811Z,37.25
2019-05-20T23:24:24.243Z,36.60
2019-05-20T23:26:52.674Z,32.53
2019-05-20T23:29:21.076Z,33.65
2019-05-20T23:31:49.483Z,37.73
2019-05-20T23:34:17.907Z,32.80
2019-05-20T23:36:46.335Z,32.53
2019-05-20T23:39:14.993Z,36.90
2019-05-20T23:41:43.652Z,34.90
2019-05-20T23:44:12.075Z,33.75
2019-05-20T23:46:40.504Z,32.70
2019-05-20T23:49:08.916Z,27.45
2019-05-20T23:51:37.351Z,25.95
2019-05-20T23:54:05.787Z,33.73
2019-05-20T23:56:34.197Z,36.33
2019-05-20T23:59:02.672Z,35.38
